KMIE/MIE METAR and TAF weather

Enter ICAO airport designator
Station Type Date Time Source
KMIE METAR 2020/04/01 23:53 UTC NOAA

KMIE 012353Z 04003KT 10SM OVC060 10/04 A3005 RMK AO2 SLP176 T01000044 10117 20089 53006


Station Type Date Time Source
KMIE Decoded METAR 2020/04/01 23:53 UTC NOAA

MUNCIE DELAWARE JOHNSON, IN, United States (KMIE) 40-14N 85-24W 285M
Apr 01, 2020 - 07:53 PM EDT / 2020.04.01 2353 UTC
Wind: from the NE (040 degrees) at 3 MPH (3 KT):0
Visibility: 10 mile(s):0
Sky conditions: overcast
Temperature: 50.0 F (10.0 C)
Dew Point: 39.9 F (4.4 C)
Relative Humidity: 68%
Pressure (altimeter): 30.05 in. Hg (1017 hPa)
Pressure tendency: 0.02 inches (0.6 hPa) higher than three hours ago
ob: KMIE 012353Z 04003KT 10SM OVC060 10/04 A3005 RMK AO2 SLP176 T01000044 10117 20089 53006
cycle: 0

Station Type Date Time Source
KMIE TAF UTC NOAA

Error!

Example: see airport list